Nuno Dias

Scout - Porto
8 Dec 2028
Friday
Process

Personality

Adaptability (2) Ambition (1) Controversy (5) Loyalty (2) Pressure (6) Professionalism (8) Sportsmanship (16) Temperament (1)

Profile

Coaching Style Democratic
License National A
Determination 16
Man Management 15
Motivating 14
Discipline 16
Job Satisfaction
100%
Fatigue
0%
Role Scout
Wage 83.2K p/w
Contract 14.03.2030

Performance

Behaviour Good
Training Effectiveness
65%
Player Development
70%
Injury Prevention
60%
Tactical Implementation
70%

Recent Events

Assessed a player now
Attended a recruitment meeting now
Recommended a transfer target now
Assessed a player 7d ago
Assessed a player 7d ago
Assessed a player 7d ago
Observed a match 7d ago
Assessed a player 7d ago

Currently Monitoring

125
Player Club Status Ability Confidence Watched Last Observed Latest Vote
William Saliba Arsenal Active 177 / 180 40% 6 04.12.2028 -
Iván Martín Racing Santander Active 148 / 157 40% 2 04.12.2028 -
Guille Rosas Boca Juniors Active 145 / 152 40% 18 02.12.2028 -
Santiago Salcedo Cruzeiro Active 158 / 158 40% 7 02.12.2028 -
Melvin Bard OGC Nice Active 163 / 156 40% 4 02.12.2028 -
Juanlu Bournemouth Active 160 / 165 40% 4 01.12.2028 -
Ryan Sessegnon Fulham Active 150 / 151 40% 5 01.12.2028 -
Manu Koné AS Roma Active 170 / 171 40% 2 29.11.2028 -
Martín Zubimendi Arsenal Active 173 / 172 40% 2 29.11.2028 -
Rico Lewis West Bromwich Albion Active 162 / 159 40% 4 28.11.2028 -
Joško Gvardiol Manchester City Active 178 / 174 40% 5 25.11.2028 -
Malick Thiaw Ipswich Town Active 166 / 161 40% 1 23.11.2028 -
Pedro Porro Tottenham Active 155 / 159 40% 3 17.11.2028 -
Amadou Onana Aston Villa Active 157 / 158 40% 4 17.11.2028 -
Jurriën Timber Arsenal Active 172 / 171 40% 3 17.11.2028 -
Archie Gray Southampton Active 159 / 153 40% 2 15.11.2028 -
Ryan Gravenberch Liverpool Active 169 / 168 40% 4 15.11.2028 -
Óscar Mingueza Crystal Palace Active 159 / 150 40% 3 14.11.2028 -
Reece James Chelsea Active 181 / 168 40% 6 10.11.2028 -
Tino Livramento Newcastle United Active 166 / 167 40% 9 10.11.2028 -
Cristhian Mosquera Stoke City Active 166 / 162 40% 2 07.11.2028 -
Mats Wieffer Brighton Active 159 / 147 40% 3 05.11.2028 -
Wesley Fofana Chelsea Active 172 / 172 40% 2 04.11.2028 -
Sven Botman Newcastle United Active 163 / 162 40% 4 03.11.2028 -
Destiny Udogie Tottenham Active 165 / 158 40% 2 02.11.2028 -
Nico González Arsenal Active 170 / 162 40% 1 02.11.2028 -
Quinten Timber Crystal Palace Active 162 / 165 40% 1 02.11.2028 -
Yehor Yarmoliuk Brentford Active 155 / 155 40% 2 31.10.2028 -
Adrien Truffert Flamengo Active 154 / 152 40% 3 30.10.2028 -
Boubacar Kamara Aston Villa Active 168 / 161 40% 3 26.10.2028 -
Moisés Caicedo Chelsea Active 172 / 179 40% 4 24.10.2028 -
Jeremie Frimpong Liverpool Active 169 / 171 40% 1 24.10.2028 -
André Wolverhampton Active 156 / 161 40% 2 10.10.2028 -
Levi Colwill Chelsea Active 164 / 171 40% 1 10.10.2028 -
Michael Kayode Brentford Active 156 / 160 40% 1 10.10.2028 -
Lewis Hall Newcastle United Active 164 / 167 40% 1 01.10.2028 -
Alexis Mac Allister Liverpool Active 166 / 160 40% 2 25.09.2028 -
Matthijs de Ligt Manchester United Active 173 / 171 40% 4 25.09.2028 -
Murillo Manchester City Active 160 / 166 40% 2 19.09.2028 -
Enzo Fernández Manchester City Active 179 / 174 40% 1 16.09.2028 -
Jan Paul van Hecke Tottenham Active 164 / 160 40% 4 14.09.2028 -
Tobías Ramírez River Plate Active 133 / 141 40% 1 14.09.2028 -
Elliot Anderson Manchester City Active 159 / 167 40% 1 10.09.2028 -
Micky van de Ven Tottenham Active 164 / 168 40% 1 08.09.2028 -
Riccardo Calafiori Burnley Active 166 / 167 40% 2 06.09.2028 -
Cristian Uribe Monaco Active 155 / 159 40% 1 05.09.2028 -
Ladislav Krejčí Wolverhampton Active 159 / 157 40% 1 03.09.2028 -
Dominik Szoboszlai Liverpool Active 172 / 177 40% 1 01.09.2028 -
Sandro Tonali Tottenham Active 171 / 181 40% 1 31.08.2028 -
Maximiliano Araújo West Ham United Active 155 / 155 40% 2 25.08.2028 -
Patrick Dorgu Bristol City Active 152 / 152 40% 1 25.08.2028 -
Exequiel Palacios Lazio Active 163 / 162 40% 1 25.08.2028 -
Anton Stach Reading Active 154 / 154 40% 1 24.08.2028 -
Matteo Gabbia Genoa Active 153 / 162 40% 2 17.08.2028 -
Khéphren Thuram Juventus Active 169 / 170 40% 2 17.08.2028 -
Mario Gila AC Milan Active 165 / 166 40% 1 15.08.2028 -
Raoul Bellanova Atalanta Active 155 / 165 40% 1 15.08.2028 -
Nicolò Fagioli Fiorentina Active 151 / 150 40% 1 12.08.2028 -
Carlos Augusto Inter Active 164 / 155 40% 1 11.08.2028 -
Alessandro Buongiorno Cagliari Active 161 / 169 40% 1 11.08.2028 -
Curtis Jones Inter Active 161 / 169 40% 1 11.08.2028 -
Honest Ahanor Atalanta Active 137 / 145 40% 1 10.08.2028 -
Enrico Delprato Parma Active 155 / 144 40% 1 10.08.2028 -
Andrey Santos Bolton Wanderers Active 153 / 158 40% 1 08.08.2028 -
Jarrad Branthwaite Everton Active 159 / 159 40% 1 08.08.2028 -
Neco Williams Wrexham Active 152 / 148 40% 1 07.08.2028 -
Bafodé Diakité Plymouth Argyle Active 146 / 153 40% 1 07.08.2028 -
Matheus Nunes Manchester City Active 168 / 168 40% 1 07.08.2028 -
Phil Foden Manchester City Active 176 / 177 40% 3 01.08.2028 -
Malick Fofana Sunderland Active 156 / 155 40% 1 01.08.2028 -
Jérémy Doku Manchester City Active 172 / 171 40% 2 29.07.2028 -
Kevin Fulham Active 158 / 162 40% 1 29.07.2028 -
Marcus Tavernier Bournemouth Active 152 / 159 40% 1 23.07.2028 -
Florian Wirtz Liverpool Active 177 / 177 40% 2 20.07.2028 -
Mason Mount Manchester United Active 160 / 159 40% 1 20.07.2028 -
Carlos Alcaraz Stoke City Active 160 / 151 40% 1 19.07.2028 -
Emile Smith Rowe Cardiff City Active 162 / 152 40% 1 19.07.2028 -
Jaden Philogene Wolverhampton Active 153 / 151 40% 1 19.07.2028 -
Ben Gannon Doak Charlton Athletic Active 153 / 157 40% 4 18.07.2028 -
Bukayo Saka Arsenal Active 193 / 187 40% 2 18.07.2028 -
Christian Pulisic AC Milan Active 169 / 164 40% 1 18.07.2028 -
Hugo Ekitiké Liverpool Active 176 / 175 40% 2 17.07.2028 -
Matteo Ruggeri Middlesbrough Active 155 / 151 40% 2 17.07.2028 -
Mikkel Damsgaard Brentford Active 151 / 146 40% 1 17.07.2028 -
Alexander Isak Liverpool Active 178 / 177 40% 1 15.07.2028 -
Yeremy Pino Crystal Palace Active 164 / 150 40% 1 11.07.2028 -
Bradley Barcola Liverpool Active 172 / 167 40% 1 11.07.2028 -
Iliman N'Diaye Everton Active 162 / 153 40% 2 07.07.2028 -
Nico O'Reilly Manchester City Active 164 / 160 40% 1 26.06.2028 -
Rafael Navarro Famalicao Active 127 / 141 79% 1 04.06.2028 Approve
Roberto Fernández Braga Report Ready 147 / 149 79% 1 03.06.2028 Approve
Senne Lammens Manchester United Active 159 / 156 40% 1 01.06.2028 -
Guillaume Restes Toulouse FC Active 150 / 150 40% 1 01.06.2028 -
Đorđe Petrović Olympique de Marseille Active 150 / 160 40% 1 01.06.2028 -
Lazar Carević Famalicao Active 140 / 141 40% 1 31.05.2028 -
Anthony Patterson Wrexham Active 139 / 148 40% 1 31.05.2028 -
Pau Víctor Braga Lost 147 / 154 79% 1 24.01.2028 -
Rúben Dias Manchester City Active 171 / 175 40% 1 24.01.2028 -
Achraf Hakimi Paris Saint-Germain Active 186 / 176 40% 1 24.01.2028 -
Zane Albarus Shrewsbury Town Active 96 / 92 40% 1 14.06.2027 -
Jan Bürger Northampton Town Active 115 / 114 40% 1 14.06.2027 -
Savinho Tottenham Active 153 / 165 40% 1 31.05.2027 -
Pablo Felipe West Ham United Active 130 / 131 40% 2 20.05.2027 -
Deniz Gül Galatasaray Active 136 / 124 40% 2 17.05.2027 -
Fábio Carvalho Brentford Active 136 / 133 40% 2 17.05.2027 -
Morgan Rogers Chelsea Lost 156 / 169 40% 4 15.05.2027 -
Bertuğ Yıldırım Basaksehir Active 133 / 115 40% 3 15.05.2027 -
Mohamed-Ali Cho Hull City Active 136 / 128 40% 3 12.05.2027 -
Younes Ebnoutalib Eintracht Frankfurt Active 136 / 125 40% 1 06.05.2027 -
Emanuel Emegha Chelsea Active 138 / 137 40% 1 06.05.2027 -
Jay Stansfield Birmingham Active 130 / 134 40% 1 03.05.2027 -
Leo Castledine Middlesbrough Active 132 / 127 40% 2 02.05.2027 -
Benjamin Šeško Manchester United Active 153 / 161 40% 1 02.05.2027 -
Rafiu Durosinmi Racing Genk Active 137 / 129 40% 2 01.05.2027 -
Ilyas Ansah Hull City Active 131 / 139 40% 2 30.04.2027 -
Giorgi Kvernadze Frosinone Active 127 / 119 40% 2 23.04.2027 -
Jeff Ekhator Juventus Active 125 / 138 40% 3 17.04.2027 -
Joe Gelhardt Hull City Active 130 / 126 40% 2 17.04.2027 -
Mathys Tel Tottenham Active 146 / 156 40% 1 15.04.2027 -
Sindre Walle Egeli Udinese Active 134 / 145 40% 2 12.04.2027 -
Markus Jensen Nacional Active 101 / 107 40% 2 28.03.2027 -
Georginio Rutter Brighton Lost 148 / 146 40% 1 25.03.2027 -
Mateus Mané Burnley Active 130 / 140 40% 2 24.03.2027 -
Sorriso Famalicao Active 130 / 123 76% 1 01.01.2027 Approve
Rodrigo Cezar Santos Active 90 / 84 40% 1 02.08.2026 -